Carlos E Rui — CULA8 — position and weather

sailwx.info

Track history (hours):
 
Tides and Currents Weather Stations Pressure Air Temp Water Temp Dewpoint Dewpoint Depression Visibility Wind Speed Wind Dir Waves Ship Positions

Carlos E Rui

Last reported at 2017-Sep-19 04:55 UTC. Time now 2017-Sep-19 11:54 UTC.
Position N 38°26' W 009°07'.

Length 15 m.

Type: Fishing. MMSI: 263269000.

Date/timePositionNaut miles runAvg speedWind from/ knotsBaromVisibWave heightAir tempDewpointWater temp
2017-Sep-19 04:55N 38°26' W 009°07'6 8.3
2017-Sep-19 04:15N 38°24' W 009°13'2 8.4
2017-Sep-19 04:00N 38°23' W 009°15'4 8.5
2017-Sep-19 03:30N 38°22' W 009°21'3 5.3
2017-Sep-19 02:59N 38°20' W 009°22'2 4.2
2017-Sep-19 02:30N 38°20' W 009°24'2 4.2
2017-Sep-19 01:59N 38°22' W 009°26'2 4.0
2017-Sep-19 01:29N 38°23' W 009°24'1 1.8
2017-Sep-19 01:00N 38°22' W 009°24'0 0.4
2017-Sep-19 00:30N 38°22' W 009°24'0 0.3
2017-Sep-19 00:00N 38°22' W 009°25'0 0.8
2017-Sep-18 23:30N 38°22' W 009°25'0 0.6
2017-Sep-18 23:00N 38°22' W 009°25'0 0.5
2017-Sep-18 22:30N 38°22' W 009°25'0 0.6
2017-Sep-18 22:00N 38°21' W 009°26'0 0.4
2017-Sep-18 21:30N 38°21' W 009°25'1 1.0
2017-Sep-18 21:00N 38°21' W 009°25'1 1.2
2017-Sep-18 20:30N 38°20' W 009°25'1 1.0
2017-Sep-18 19:59N 38°20' W 009°24'0 0.5
2017-Sep-18 19:28N 38°20' W 009°24'0 0.9
2017-Sep-18 19:00N 38°20' W 009°23'0 0.9
2017-Sep-18 18:30N 38°20' W 009°23'1 1.1
2017-Sep-18 18:00N 38°20' W 009°22'1 1.1
2017-Sep-18 17:30N 38°21' W 009°22'1 1.0
2017-Sep-18 17:00N 38°21' W 009°21'0 0.9
2017-Sep-18 16:30N 38°21' W 009°21'0 0.7
2017-Sep-18 16:00N 38°22' W 009°21'0 0.4
2017-Sep-18 15:30N 38°22' W 009°21'3 5.4
2017-Sep-18 15:00N 38°23' W 009°18'4 8.4
2017-Sep-18 14:30N 38°24' W 009°12'4 8.3
2017-Sep-18 14:00N 38°26' W 009°08'1 1.8
2017-Sep-18 13:30N 38°26' W 009°07'0 0.0
2017-Sep-16 15:08N 38°26' W 009°07'0 2.4
2017-Sep-16 15:00N 38°26' W 009°07'4 8.5
2017-Sep-16 14:29N 38°24' W 009°11'4 8.3
2017-Sep-16 14:01N 38°23' W 009°16'4 7.6
2017-Sep-16 13:30N 38°22' W 009°21'3 5.3
2017-Sep-16 13:00N 38°19' W 009°22'3 5.1
2017-Sep-16 12:30N 38°20' W 009°25'2 3.5
2017-Sep-16 12:00N 38°22' W 009°25'1 2.0
2017-Sep-16 11:30N 38°23' W 009°24'1 1.5
2017-Sep-16 11:00N 38°22' W 009°24'0 0.6
2017-Sep-16 10:30N 38°22' W 009°24'0 0.8
2017-Sep-16 10:00N 38°22' W 009°25'0 0.6
2017-Sep-16 09:30N 38°21' W 009°25'0 0.7
2017-Sep-16 08:57N 38°21' W 009°25'0 0.8
2017-Sep-16 08:27N 38°21' W 009°25'1 1.2
2017-Sep-16 08:00N 38°20' W 009°25'1 1.1
2017-Sep-16 07:30N 38°20' W 009°24'1 1.0
2017-Sep-16 07:00N 38°20' W 009°23'0 0.8
2017-Sep-16 06:26N 38°20' W 009°23'0 0.9
2017-Sep-16 05:56N 38°20' W 009°22'2 1.0
2017-Sep-16 04:23N 38°21' W 009°21'0 1.0
2017-Sep-16 03:59N 38°22' W 009°21'0 0.8
2017-Sep-16 03:29N 38°22' W 009°21'0 0.2
2017-Sep-16 03:00N 38°22' W 009°21'0 0.4
2017-Sep-16 02:27N 38°22' W 009°21'3 6.5
2017-Sep-16 01:57N 38°23' W 009°17'8 8.0
2017-Sep-16 00:57N 38°26' W 009°07'1 1.0
2017-Sep-16 00:20N 38°26' W 009°07'0 0.0
2017-Sep-14 04:59N 38°26' W 009°06'6 8.0
2017-Sep-14 04:17N 38°24' W 009°13'2 8.4
2017-Sep-14 04:00N 38°24' W 009°16'4 7.8
2017-Sep-14 03:30N 38°23' W 009°21'3 5.3
2017-Sep-14 02:57N 38°20' W 009°21'2 3.9
2017-Sep-14 02:30N 38°20' W 009°24'2 3.0
2017-Sep-14 01:43N 38°22' W 009°24'1 2.2
2017-Sep-14 01:29N 38°22' W 009°23'1 2.2
2017-Sep-14 00:59N 38°22' W 009°24'0 0.3
2017-Sep-14 00:30N 38°22' W 009°25'0 0.7
2017-Sep-14 00:00N 38°22' W 009°25'0 0.6
2017-Sep-13 23:18N 38°21' W 009°25'0 0.7
2017-Sep-13 22:59N 38°21' W 009°25'1 0.7
2017-Sep-13 22:08N 38°21' W 009°25'0 0.7
2017-Sep-13 21:59N 38°21' W 009°25'0 0.8
2017-Sep-13 21:30N 38°20' W 009°25'0 0.6
2017-Sep-13 21:01N 38°20' W 009°25'0 0.7
2017-Sep-13 20:26N 38°20' W 009°24'0 0.5
2017-Sep-13 20:00N 38°20' W 009°24'0 0.8
2017-Sep-13 19:29N 38°20' W 009°23'1 1.0
2017-Sep-13 18:51N 38°20' W 009°22'0 1.0
2017-Sep-13 18:30N 38°20' W 009°22'0 1.0
2017-Sep-13 18:00N 38°20' W 009°22'0 1.0
2017-Sep-13 17:30N 38°21' W 009°21'0 1.0
2017-Sep-13 17:00N 38°21' W 009°21'0 1.0
2017-Sep-13 16:30N 38°22' W 009°21'0 0.4
2017-Sep-13 15:57N 38°22' W 009°21'0 0.3
2017-Sep-13 15:30N 38°22' W 009°21'3 6.7
2017-Sep-13 15:00N 38°23' W 009°17'4 7.6
2017-Sep-13 14:30N 38°24' W 009°12'4 7.9
2017-Sep-13 14:00N 38°26' W 009°07'1 0.0
2017-Sep-12 04:59N 38°26' W 009°07'5 8.1
2017-Sep-12 04:22N 38°24' W 009°13'3 8.2
2017-Sep-12 04:00N 38°23' W 009°16'4 7.5
2017-Sep-12 03:30N 38°22' W 009°21'3 5.2
2017-Sep-12 03:00N 38°20' W 009°21'2 4.3
2017-Sep-12 02:30N 38°20' W 009°24'2 4.3
2017-Sep-12 02:00N 38°22' W 009°25'2 4.7
2017-Sep-12 01:30N 38°22' W 009°22'1 2.7
2017-Sep-12 00:58N 38°21' W 009°21'0 0.2
2017-Sep-12 00:30N 38°21' W 009°21'0 0.3
2017-Sep-11 23:58N 38°21' W 009°21'0 0.8
2017-Sep-11 23:30N 38°21' W 009°22'1 1.0
2017-Sep-11 22:59N 38°20' W 009°22'1 1.0
2017-Sep-11 22:30N 38°20' W 009°22'1 1.2
2017-Sep-11 21:59N 38°20' W 009°23'0 1.0
2017-Sep-11 21:30N 38°20' W 009°24'0 0.8
2017-Sep-11 21:00N 38°20' W 009°24'0 0.7
2017-Sep-11 20:29N 38°20' W 009°25'0 0.7
2017-Sep-11 19:54N 38°21' W 009°25'0 0.7
2017-Sep-11 19:30N 38°21' W 009°25'0 0.6
2017-Sep-11 18:51N 38°21' W 009°25'0 0.5
2017-Sep-11 18:30N 38°21' W 009°25'1 0.9
2017-Sep-11 17:53N 38°22' W 009°25'0 0.9
2017-Sep-11 17:29N 38°22' W 009°25'0 0.8
2017-Sep-11 17:00N 38°22' W 009°24'0 0.8
2017-Sep-11 16:30N 38°22' W 009°24'0 0.9
2017-Sep-11 16:00N 38°22' W 009°23'2 3.6
2017-Sep-11 15:27N 38°22' W 009°21'4 7.2
2017-Sep-11 14:51N 38°23' W 009°15'3 7.3
2017-Sep-11 14:30N 38°24' W 009°12'4 7.9
2017-Sep-11 14:00N 38°26' W 009°08'  
Track history (hours):
 
Tides and Currents Weather Stations Pressure Air Temp Water Temp Dewpoint Dewpoint Depression Visibility Wind Speed Wind Dir Waves Ship Positions

Carlos E Rui

Last reported at 2017-Sep-19 04:55 UTC. Time now 2017-Sep-19 11:54 UTC.
Position N 38°26' W 009°07'.

Length 15 m.

Type: Fishing. MMSI: 263269000.

Date/timePositionNaut miles runAvg speedWind from/ knotsBaromVisibWave heightAir tempDewpointWater temp
2017-Sep-19 04:55N 38°26' W 009°07'6 8.3
2017-Sep-19 04:15N 38°24' W 009°13'2 8.4
2017-Sep-19 04:00N 38°23' W 009°15'4 8.5
2017-Sep-19 03:30N 38°22' W 009°21'3 5.3
2017-Sep-19 02:59N 38°20' W 009°22'2 4.2
2017-Sep-19 02:30N 38°20' W 009°24'2 4.2
2017-Sep-19 01:59N 38°22' W 009°26'2 4.0
2017-Sep-19 01:29N 38°23' W 009°24'1 1.8
2017-Sep-19 01:00N 38°22' W 009°24'0 0.4
2017-Sep-19 00:30N 38°22' W 009°24'0 0.3
2017-Sep-19 00:00N 38°22' W 009°25'0 0.8
2017-Sep-18 23:30N 38°22' W 009°25'0 0.6
2017-Sep-18 23:00N 38°22' W 009°25'0 0.5
2017-Sep-18 22:30N 38°22' W 009°25'0 0.6
2017-Sep-18 22:00N 38°21' W 009°26'0 0.4
2017-Sep-18 21:30N 38°21' W 009°25'1 1.0
2017-Sep-18 21:00N 38°21' W 009°25'1 1.2
2017-Sep-18 20:30N 38°20' W 009°25'1 1.0
2017-Sep-18 19:59N 38°20' W 009°24'0 0.5
2017-Sep-18 19:28N 38°20' W 009°24'0 0.9
2017-Sep-18 19:00N 38°20' W 009°23'0 0.9
2017-Sep-18 18:30N 38°20' W 009°23'1 1.1
2017-Sep-18 18:00N 38°20' W 009°22'1 1.1
2017-Sep-18 17:30N 38°21' W 009°22'1 1.0
2017-Sep-18 17:00N 38°21' W 009°21'0 0.9
2017-Sep-18 16:30N 38°21' W 009°21'0 0.7
2017-Sep-18 16:00N 38°22' W 009°21'0 0.4
2017-Sep-18 15:30N 38°22' W 009°21'3 5.4
2017-Sep-18 15:00N 38°23' W 009°18'4 8.4
2017-Sep-18 14:30N 38°24' W 009°12'4 8.3
2017-Sep-18 14:00N 38°26' W 009°08'1 1.8
2017-Sep-18 13:30N 38°26' W 009°07'0 0.0
2017-Sep-16 15:08N 38°26' W 009°07'0 2.4
2017-Sep-16 15:00N 38°26' W 009°07'4 8.5
2017-Sep-16 14:29N 38°24' W 009°11'4 8.3
2017-Sep-16 14:01N 38°23' W 009°16'4 7.6
2017-Sep-16 13:30N 38°22' W 009°21'3 5.3
2017-Sep-16 13:00N 38°19' W 009°22'3 5.1
2017-Sep-16 12:30N 38°20' W 009°25'2 3.5
2017-Sep-16 12:00N 38°22' W 009°25'1 2.0
2017-Sep-16 11:30N 38°23' W 009°24'1 1.5
2017-Sep-16 11:00N 38°22' W 009°24'0 0.6
2017-Sep-16 10:30N 38°22' W 009°24'0 0.8
2017-Sep-16 10:00N 38°22' W 009°25'0 0.6
2017-Sep-16 09:30N 38°21' W 009°25'0 0.7
2017-Sep-16 08:57N 38°21' W 009°25'0 0.8
2017-Sep-16 08:27N 38°21' W 009°25'1 1.2
2017-Sep-16 08:00N 38°20' W 009°25'1 1.1
2017-Sep-16 07:30N 38°20' W 009°24'1 1.0
2017-Sep-16 07:00N 38°20' W 009°23'0 0.8
2017-Sep-16 06:26N 38°20' W 009°23'0 0.9
2017-Sep-16 05:56N 38°20' W 009°22'2 1.0
2017-Sep-16 04:23N 38°21' W 009°21'0 1.0
2017-Sep-16 03:59N 38°22' W 009°21'0 0.8
2017-Sep-16 03:29N 38°22' W 009°21'0 0.2
2017-Sep-16 03:00N 38°22' W 009°21'0 0.4
2017-Sep-16 02:27N 38°22' W 009°21'3 6.5
2017-Sep-16 01:57N 38°23' W 009°17'8 8.0
2017-Sep-16 00:57N 38°26' W 009°07'1 1.0
2017-Sep-16 00:20N 38°26' W 009°07'0 0.0
2017-Sep-14 04:59N 38°26' W 009°06'6 8.0
2017-Sep-14 04:17N 38°24' W 009°13'2 8.4
2017-Sep-14 04:00N 38°24' W 009°16'4 7.8
2017-Sep-14 03:30N 38°23' W 009°21'3 5.3
2017-Sep-14 02:57N 38°20' W 009°21'2 3.9
2017-Sep-14 02:30N 38°20' W 009°24'2 3.0
2017-Sep-14 01:43N 38°22' W 009°24'1 2.2
2017-Sep-14 01:29N 38°22' W 009°23'1 2.2
2017-Sep-14 00:59N 38°22' W 009°24'0 0.3
2017-Sep-14 00:30N 38°22' W 009°25'0 0.7
2017-Sep-14 00:00N 38°22' W 009°25'0 0.6
2017-Sep-13 23:18N 38°21' W 009°25'0 0.7
2017-Sep-13 22:59N 38°21' W 009°25'1 0.7
2017-Sep-13 22:08N 38°21' W 009°25'0 0.7
2017-Sep-13 21:59N 38°21' W 009°25'0 0.8
2017-Sep-13 21:30N 38°20' W 009°25'0 0.6
2017-Sep-13 21:01N 38°20' W 009°25'0 0.7
2017-Sep-13 20:26N 38°20' W 009°24'0 0.5
2017-Sep-13 20:00N 38°20' W 009°24'0 0.8
2017-Sep-13 19:29N 38°20' W 009°23'1 1.0
2017-Sep-13 18:51N 38°20' W 009°22'0 1.0
2017-Sep-13 18:30N 38°20' W 009°22'0 1.0
2017-Sep-13 18:00N 38°20' W 009°22'0 1.0
2017-Sep-13 17:30N 38°21' W 009°21'0 1.0
2017-Sep-13 17:00N 38°21' W 009°21'0 1.0
2017-Sep-13 16:30N 38°22' W 009°21'0 0.4
2017-Sep-13 15:57N 38°22' W 009°21'0 0.3
2017-Sep-13 15:30N 38°22' W 009°21'3 6.7
2017-Sep-13 15:00N 38°23' W 009°17'4 7.6
2017-Sep-13 14:30N 38°24' W 009°12'4 7.9
2017-Sep-13 14:00N 38°26' W 009°07'1 0.0
2017-Sep-12 04:59N 38°26' W 009°07'5 8.1
2017-Sep-12 04:22N 38°24' W 009°13'3 8.2
2017-Sep-12 04:00N 38°23' W 009°16'4 7.5
2017-Sep-12 03:30N 38°22' W 009°21'3 5.2
2017-Sep-12 03:00N 38°20' W 009°21'2 4.3
2017-Sep-12 02:30N 38°20' W 009°24'2 4.3
2017-Sep-12 02:00N 38°22' W 009°25'2 4.7
2017-Sep-12 01:30N 38°22' W 009°22'1 2.7
2017-Sep-12 00:58N 38°21' W 009°21'0 0.2
2017-Sep-12 00:30N 38°21' W 009°21'0 0.3
2017-Sep-11 23:58N 38°21' W 009°21'0 0.8
2017-Sep-11 23:30N 38°21' W 009°22'1 1.0
2017-Sep-11 22:59N 38°20' W 009°22'1 1.0
2017-Sep-11 22:30N 38°20' W 009°22'1 1.2
2017-Sep-11 21:59N 38°20' W 009°23'0 1.0
2017-Sep-11 21:30N 38°20' W 009°24'0 0.8
2017-Sep-11 21:00N 38°20' W 009°24'0 0.7
2017-Sep-11 20:29N 38°20' W 009°25'0 0.7
2017-Sep-11 19:54N 38°21' W 009°25'0 0.7
2017-Sep-11 19:30N 38°21' W 009°25'0 0.6
2017-Sep-11 18:51N 38°21' W 009°25'0 0.5
2017-Sep-11 18:30N 38°21' W 009°25'1 0.9
2017-Sep-11 17:53N 38°22' W 009°25'0 0.9
2017-Sep-11 17:29N 38°22' W 009°25'0 0.8
2017-Sep-11 17:00N 38°22' W 009°24'0 0.8
2017-Sep-11 16:30N 38°22' W 009°24'0 0.9
2017-Sep-11 16:00N 38°22' W 009°23'2 3.6
2017-Sep-11 15:27N 38°22' W 009°21'4 7.2
2017-Sep-11 14:51N 38°23' W 009°15'3 7.3
2017-Sep-11 14:30N 38°24' W 009°12'4 7.9
2017-Sep-11 14:00N 38°26' W 009°08'  

Dump ship's entire track history